Terminal Aerodrome Forecast
Issued by NWS

Home | Current Version | Previous Version | Text Only | Print | Product List | Glossary On
Versions: 1 2 3 4 5 6 7 8 9 10 11 12 13 14 15 16 17 18 19 20 21 22 23 24
000
FTAK31 PAFA 012340
TAFAFA
TAF
PAFA 012340Z 0200/0306 20010KT 5SM RA BR BKN025 OVC040
     FM020300 22012KT 3SM -RA BR BKN015 OVC025 WS020/22040KT
     FM020900 24015G25KT 4SM -RA BR BKN015 OVC025 WS020/22040KT
     FM021800 26018G28KT P6SM -SHRA SCT015 BKN035 BKN060
     FM030000 26012G22KT P6SM SCT030 BKN090=

USA.gov is the U.S. government's official web portal to all federal, state and local government web resources and services.